createdAt,value
2019-03-08T00:02:19.144Z,9.10
2019-03-08T00:04:47.414Z,9.10
2019-03-08T00:07:15.720Z,9.10
2019-03-08T00:09:44.021Z,9.10
2019-03-08T00:12:12.413Z,9.10
2019-03-08T00:14:40.678Z,9.10
2019-03-08T00:17:08.954Z,9.10
2019-03-08T00:19:37.228Z,9.10
2019-03-08T00:22:06.150Z,9.10
2019-03-08T00:24:34.394Z,9.20
2019-03-08T00:27:02.812Z,9.20
2019-03-08T00:29:31.084Z,9.10
2019-03-08T00:31:59.342Z,9.10
2019-03-08T00:34:27.610Z,9.10
2019-03-08T00:36:55.874Z,9.20
2019-03-08T00:39:24.122Z,9.10
2019-03-08T00:41:52.643Z,9.10
2019-03-08T00:44:20.971Z,9.10
2019-03-08T00:46:49.218Z,9.10
2019-03-08T00:49:17.461Z,9.10
2019-03-08T00:51:45.711Z,9.10
2019-03-08T00:54:13.948Z,9.10
2019-03-08T00:56:42.374Z,9.10
2019-03-08T00:59:10.640Z,9.10
2019-03-08T01:01:38.891Z,9.10
2019-03-08T01:04:07.118Z,9.10
2019-03-08T01:06:35.370Z,9.10
2019-03-08T01:09:04.771Z,9.10
2019-03-08T01:11:33.042Z,9.10
2019-03-08T01:14:01.308Z,9.10
2019-03-08T01:16:29.633Z,9.10
2019-03-08T01:18:57.887Z,9.10
2019-03-08T01:21:26.135Z,9.10
2019-03-08T01:23:54.445Z,9.10
2019-03-08T01:26:22.722Z,9.10
2019-03-08T01:28:50.987Z,9.10
2019-03-08T01:31:19.218Z,9.10
2019-03-08T01:33:47.540Z,9.10
2019-03-08T01:36:15.770Z,9.10
2019-03-08T01:38:44.016Z,9.10
2019-03-08T01:41:12.265Z,9.10
2019-03-08T01:43:40.532Z,9.20
2019-03-08T01:46:08.796Z,9.10
2019-03-08T01:48:37.072Z,9.10
2019-03-08T01:51:05.336Z,9.10
2019-03-08T01:53:33.587Z,9.10
2019-03-08T01:56:01.838Z,9.10
2019-03-08T01:58:30.099Z,9.00
2019-03-08T02:00:58.371Z,9.00
2019-03-08T02:03:26.639Z,8.90
2019-03-08T02:05:54.902Z,8.90
2019-03-08T02:08:23.147Z,8.90
2019-03-08T02:10:51.399Z,8.90
2019-03-08T02:13:19.951Z,8.90
2019-03-08T02:15:48.228Z,8.90
2019-03-08T02:18:16.483Z,8.90
2019-03-08T02:20:44.707Z,8.90
2019-03-08T02:23:12.969Z,8.90
2019-03-08T02:25:41.203Z,8.90
2019-03-08T02:28:09.845Z,8.90
2019-03-08T02:30:38.109Z,8.80
2019-03-08T02:33:06.438Z,8.80
2019-03-08T02:35:34.690Z,8.70
2019-03-08T02:38:02.942Z,8.60
2019-03-08T02:40:33.508Z,8.60
2019-03-08T02:43:04.317Z,8.60
2019-03-08T02:45:32.599Z,8.50
2019-03-08T02:48:00.931Z,8.50
2019-03-08T02:50:29.200Z,8.40
2019-03-08T02:52:57.469Z,8.40
2019-03-08T02:55:25.722Z,8.40
2019-03-08T02:57:53.975Z,8.40
2019-03-08T03:00:22.225Z,8.40
2019-03-08T03:02:50.572Z,8.40
2019-03-08T03:05:18.803Z,8.40
2019-03-08T03:07:47.055Z,8.50
2019-03-08T03:10:15.319Z,8.50
2019-03-08T03:12:43.533Z,8.50
2019-03-08T03:15:14.000Z,8.50
2019-03-08T03:17:42.235Z,8.60
2019-03-08T03:20:12.035Z,8.60
2019-03-08T03:22:40.278Z,8.60
2019-03-08T03:25:10.893Z,8.60
2019-03-08T03:27:39.141Z,8.60
2019-03-08T03:30:10.651Z,8.60
2019-03-08T03:32:38.922Z,8.60
2019-03-08T03:35:07.605Z,8.70
2019-03-08T03:37:35.850Z,8.70
2019-03-08T03:40:10.001Z,8.70
2019-03-08T03:42:38.263Z,8.70
2019-03-08T03:45:08.634Z,8.70
2019-03-08T03:47:36.893Z,8.70
2019-03-08T03:50:07.796Z,8.80
2019-03-08T03:52:36.475Z,8.80
2019-03-08T03:55:07.075Z,8.80
2019-03-08T03:57:35.335Z,8.80
2019-03-08T04:00:17.576Z,8.80
2019-03-08T04:02:45.829Z,8.80
2019-03-08T04:05:14.294Z,8.80
2019-03-08T04:07:42.696Z,8.80
2019-03-08T04:10:14.890Z,8.80
2019-03-08T04:12:43.144Z,8.80
2019-03-08T04:15:16.744Z,8.90
2019-03-08T04:17:45.255Z,8.90
2019-03-08T04:20:15.708Z,8.90
2019-03-08T04:22:43.973Z,8.90
2019-03-08T04:25:13.408Z,8.90
2019-03-08T04:27:41.854Z,8.90
2019-03-08T04:30:15.624Z,8.90
2019-03-08T04:32:43.846Z,8.80
2019-03-08T04:35:12.171Z,8.90
2019-03-08T04:37:40.421Z,8.90
2019-03-08T04:40:10.303Z,8.80
2019-03-08T04:42:38.555Z,8.80
2019-03-08T04:45:09.826Z,8.80
2019-03-08T04:47:38.083Z,8.90
2019-03-08T04:50:09.065Z,8.90
2019-03-08T04:52:37.370Z,8.90
2019-03-08T04:55:08.891Z,8.90
2019-03-08T04:57:37.156Z,8.80
2019-03-08T05:00:09.180Z,8.80
2019-03-08T05:02:37.480Z,8.80
2019-03-08T05:05:05.864Z,8.80
2019-03-08T05:07:34.151Z,8.80
2019-03-08T05:10:02.565Z,8.80
2019-03-08T05:12:31.118Z,8.80
2019-03-08T05:14:59.759Z,8.80
2019-03-08T05:17:28.010Z,8.80
2019-03-08T05:19:56.333Z,8.70
2019-03-08T05:22:24.660Z,8.80
2019-03-08T05:24:52.916Z,8.80
2019-03-08T05:27:21.164Z,8.70
2019-03-08T05:29:49.953Z,8.70
2019-03-08T05:32:18.214Z,8.70
2019-03-08T05:34:46.457Z,8.70
2019-03-08T05:37:14.713Z,8.70
2019-03-08T05:39:42.975Z,8.70
2019-03-08T05:42:11.252Z,8.70
2019-03-08T05:44:39.656Z,8.70
2019-03-08T05:47:07.916Z,8.70
2019-03-08T05:49:36.152Z,8.60
2019-03-08T05:52:04.405Z,8.60
2019-03-08T05:54:32.675Z,8.60
2019-03-08T05:57:00.912Z,8.60
2019-03-08T05:59:29.243Z,8.60
2019-03-08T06:01:57.475Z,8.60
2019-03-08T06:04:25.749Z,8.70
2019-03-08T06:06:54.012Z,8.60
2019-03-08T06:09:22.262Z,8.60
2019-03-08T06:11:50.523Z,8.60
2019-03-08T06:14:18.766Z,8.60
2019-03-08T06:16:47.384Z,8.50
2019-03-08T06:19:15.646Z,8.50
2019-03-08T06:21:43.883Z,8.60
2019-03-08T06:24:12.157Z,8.60
2019-03-08T06:26:40.475Z,8.60
2019-03-08T06:29:08.733Z,8.60
2019-03-08T06:31:36.971Z,8.60
2019-03-08T06:34:05.264Z,8.50
2019-03-08T06:36:33.549Z,8.50
2019-03-08T06:39:01.788Z,8.50
2019-03-08T06:41:30.112Z,8.60
2019-03-08T06:43:58.389Z,8.60
2019-03-08T06:46:26.647Z,8.60
2019-03-08T06:48:55.162Z,8.60
2019-03-08T06:51:23.423Z,8.70
2019-03-08T06:53:51.818Z,8.60
2019-03-08T06:56:20.201Z,8.60
2019-03-08T06:58:56.012Z,8.60
2019-03-08T07:01:24.764Z,8.70
2019-03-08T07:03:53.022Z,8.70
2019-03-08T07:06:21.256Z,8.80
2019-03-08T07:08:49.525Z,8.80
2019-03-08T07:11:17.782Z,8.80
2019-03-08T07:13:46.034Z,8.70
2019-03-08T07:16:14.606Z,8.70
2019-03-08T07:18:43.437Z,8.70
2019-03-08T07:21:16.452Z,8.70
2019-03-08T07:23:58.879Z,8.70
2019-03-08T07:26:38.028Z,8.70
2019-03-08T07:29:08.020Z,8.80
2019-03-08T07:31:37.894Z,8.80
2019-03-08T07:34:23.112Z,8.90
2019-03-08T07:37:01.821Z,8.90
2019-03-08T07:39:31.786Z,8.80
2019-03-08T07:42:17.845Z,8.90
2019-03-08T07:44:56.763Z,8.90
2019-03-08T07:47:41.890Z,9.00
2019-03-08T07:50:13.716Z,9.00
2019-03-08T07:52:43.585Z,9.00
2019-03-08T07:55:16.200Z,9.10
2019-03-08T07:57:51.793Z,9.10
2019-03-08T08:00:37.137Z,9.10
2019-03-08T08:03:07.023Z,9.10
2019-03-08T08:05:39.668Z,9.20
2019-03-08T08:08:18.733Z,9.20
2019-03-08T08:10:54.609Z,9.20
2019-03-08T08:13:24.516Z,9.20
2019-03-08T08:16:09.982Z,9.20
2019-03-08T08:18:48.671Z,9.20
2019-03-08T08:21:18.551Z,9.10
2019-03-08T08:23:57.814Z,9.10
2019-03-08T08:26:27.702Z,9.10
2019-03-08T08:28:57.604Z,9.20
2019-03-08T08:31:27.499Z,9.20
2019-03-08T08:34:00.658Z,9.20
2019-03-08T08:36:46.425Z,9.20
2019-03-08T08:39:28.475Z,9.20
2019-03-08T08:42:04.362Z,9.20
2019-03-08T08:44:53.189Z,9.30
2019-03-08T08:47:23.191Z,9.30
2019-03-08T08:49:55.504Z,9.30
2019-03-08T08:52:30.868Z,9.30
2019-03-08T08:55:00.765Z,9.30
2019-03-08T08:57:47.098Z,9.30
2019-03-08T09:00:22.070Z,9.30
2019-03-08T09:03:08.164Z,9.20
2019-03-08T09:05:56.426Z,9.20
2019-03-08T09:08:31.998Z,9.20
2019-03-08T09:11:01.901Z,9.20
2019-03-08T09:13:34.821Z,9.20
2019-03-08T09:16:04.724Z,9.20
2019-03-08T09:18:34.600Z,9.10
2019-03-08T09:21:21.032Z,9.20
2019-03-08T09:24:07.437Z,9.20
2019-03-08T09:26:37.393Z,9.20
2019-03-08T09:29:07.288Z,9.20
2019-03-08T09:31:46.104Z,9.20
2019-03-08T09:34:21.651Z,9.10
2019-03-08T09:37:03.283Z,9.10
2019-03-08T09:39:39.019Z,9.10
2019-03-08T09:42:25.297Z,9.10
2019-03-08T09:44:55.185Z,9.10
2019-03-08T09:47:27.752Z,9.10
2019-03-08T09:50:09.509Z,9.20
2019-03-08T09:52:39.427Z,9.20
2019-03-08T09:55:26.724Z,9.30
2019-03-08T09:57:56.678Z,9.30
2019-03-08T10:00:26.576Z,9.30
2019-03-08T10:03:14.991Z,9.30
2019-03-08T10:05:44.907Z,9.30
2019-03-08T10:08:23.809Z,9.30
2019-03-08T10:10:59.458Z,9.40
2019-03-08T10:13:35.404Z,9.40
2019-03-08T10:16:14.056Z,9.40
2019-03-08T10:18:46.703Z,9.40
2019-03-08T10:21:19.241Z,9.30
2019-03-08T10:23:49.533Z,9.30
2019-03-08T10:26:22.091Z,9.30
2019-03-08T10:28:52.043Z,9.30
2019-03-08T10:31:25.031Z,9.30
2019-03-08T10:33:58.010Z,9.40
2019-03-08T10:36:44.392Z,9.40
2019-03-08T10:39:14.298Z,9.50
2019-03-08T10:42:00.563Z,9.60
2019-03-08T10:44:30.452Z,9.80
2019-03-08T10:47:00.344Z,9.90
2019-03-08T10:49:36.255Z,10.00
2019-03-08T10:52:17.297Z,10.10
2019-03-08T10:54:49.878Z,10.10
2019-03-08T10:57:36.225Z,10.10
2019-03-08T11:00:12.253Z,10.00
2019-03-08T11:02:42.535Z,10.00
2019-03-08T11:05:18.580Z,10.10
2019-03-08T11:07:54.613Z,10.20
2019-03-08T11:10:27.647Z,10.30
2019-03-08T11:12:57.899Z,10.30
2019-03-08T11:15:30.527Z,10.20
2019-03-08T11:18:06.193Z,10.30
2019-03-08T11:20:52.250Z,10.70
2019-03-08T11:33:50.379Z,11.50
2019-03-08T11:36:25.939Z,11.40
2019-03-08T11:38:58.289Z,11.30
2019-03-08T11:41:28.408Z,11.20
2019-03-08T11:44:01.205Z,11.20
2019-03-08T11:46:31.112Z,11.30
2019-03-08T11:49:17.369Z,11.20
2019-03-08T11:51:56.888Z,11.60
2019-03-08T11:54:45.153Z,12.00
2019-03-08T11:57:15.055Z,12.30
2019-03-08T12:00:00.127Z,12.40
2019-03-08T12:02:37.721Z,12.60
2019-03-08T12:05:23.596Z,12.60
2019-03-08T12:08:02.490Z,12.40
2019-03-08T12:10:44.446Z,12.30
2019-03-08T12:13:26.187Z,12.40
2019-03-08T12:16:12.392Z,12.30
2019-03-08T12:18:43.216Z,12.30
2019-03-08T12:21:16.015Z,12.20
2019-03-08T12:23:54.907Z,12.10
2019-03-08T12:26:31.135Z,11.80
2019-03-08T12:29:15.845Z,11.40
2019-03-08T12:32:03.871Z,11.40
2019-03-08T12:34:36.747Z,11.20
2019-03-08T12:37:09.594Z,10.90
2019-03-08T12:39:39.544Z,10.70
2019-03-08T12:42:24.528Z,10.70
2019-03-08T12:45:10.757Z,10.60
2019-03-08T12:47:43.800Z,10.60
2019-03-08T12:50:19.476Z,10.40
2019-03-08T12:53:05.609Z,10.30
2019-03-08T12:55:47.868Z,10.30
2019-03-08T12:58:30.037Z,10.20
2019-03-08T13:01:02.816Z,10.20
2019-03-08T13:03:44.942Z,10.20
2019-03-08T13:06:20.767Z,10.40
2019-03-08T13:09:03.394Z,10.50
2019-03-08T13:11:33.488Z,10.60
2019-03-08T13:14:01.643Z,10.70
2019-03-08T13:16:29.884Z,10.60
2019-03-08T13:18:58.246Z,10.50
2019-03-08T13:21:26.595Z,10.50
2019-03-08T13:23:54.860Z,10.40
2019-03-08T13:26:23.081Z,10.40
2019-03-08T13:28:51.358Z,10.30
2019-03-08T13:31:19.618Z,10.40
2019-03-08T13:33:47.892Z,10.50
2019-03-08T13:36:16.153Z,10.70
2019-03-08T13:38:47.447Z,10.80
2019-03-08T13:41:15.677Z,10.80
2019-03-08T13:43:43.948Z,10.80
2019-03-08T13:46:12.201Z,10.60
2019-03-08T13:48:40.463Z,10.60
2019-03-08T13:51:08.726Z,10.60
2019-03-08T13:53:36.955Z,10.50
2019-03-08T13:56:05.213Z,10.60
2019-03-08T13:58:33.473Z,10.50
2019-03-08T14:01:01.802Z,10.60
2019-03-08T14:03:30.093Z,10.50
2019-03-08T14:05:58.339Z,10.50
2019-03-08T14:08:26.605Z,10.50
2019-03-08T14:10:54.869Z,10.50
2019-03-08T14:13:23.123Z,10.40
2019-03-08T14:15:51.358Z,10.50
2019-03-08T14:18:19.639Z,11.00
2019-03-08T14:20:47.876Z,11.50
2019-03-08T14:46:01.099Z,12.70
2019-03-08T14:48:29.336Z,12.80
2019-03-08T14:50:57.851Z,12.90
2019-03-08T14:53:28.566Z,12.90
2019-03-08T14:55:59.071Z,12.70
2019-03-08T14:58:26.115Z,12.50
2019-03-08T15:00:54.387Z,12.20
2019-03-08T15:03:23.790Z,12.40
2019-03-08T15:05:54.881Z,13.00
2019-03-08T15:08:22.646Z,13.40
2019-03-08T15:10:51.459Z,13.60
2019-03-08T15:13:20.140Z,13.90
2019-03-08T15:15:49.902Z,14.10
2019-03-08T15:18:18.130Z,14.40
2019-03-08T15:20:46.415Z,14.50
2019-03-08T15:23:17.238Z,14.60
2019-03-08T15:25:45.229Z,14.00
2019-03-08T15:28:14.731Z,13.80
2019-03-08T15:30:43.246Z,13.90
2019-03-08T15:33:11.487Z,13.90
2019-03-08T15:35:39.759Z,13.90
2019-03-08T15:38:09.932Z,13.70
2019-03-08T15:40:38.816Z,14.00
2019-03-08T15:43:09.673Z,14.60
2019-03-08T15:53:02.956Z,15.80
2019-03-08T15:55:31.204Z,16.10
2019-03-08T15:57:59.848Z,16.30
2019-03-08T16:00:28.092Z,16.40
2019-03-08T16:05:28.205Z,16.00
2019-03-08T16:07:57.658Z,15.40
2019-03-08T16:10:24.563Z,15.00
2019-03-08T16:12:52.825Z,14.90
2019-03-08T16:15:21.151Z,14.70
2019-03-08T16:17:49.382Z,14.30
2019-03-08T16:20:19.867Z,14.00
2019-03-08T16:22:48.117Z,13.70
2019-03-08T16:25:17.157Z,13.40
2019-03-08T16:27:45.394Z,13.20
2019-03-08T16:30:32.864Z,13.00
2019-03-08T16:33:17.973Z,12.90
2019-03-08T16:35:54.247Z,12.70
2019-03-08T16:38:33.076Z,12.60
2019-03-08T16:41:18.272Z,12.20
2019-03-08T16:43:50.898Z,12.00
2019-03-08T16:46:20.749Z,11.90
2019-03-08T16:49:02.628Z,11.50
2019-03-08T16:51:35.995Z,11.30
2019-03-08T16:54:12.143Z,11.10
2019-03-08T16:56:44.937Z,10.90
2019-03-08T16:59:17.501Z,10.80
2019-03-08T17:04:51.419Z,10.30
2019-03-08T17:07:30.278Z,10.30
2019-03-08T17:10:12.286Z,10.40
2019-03-08T17:12:42.615Z,10.10
2019-03-08T17:15:18.750Z,10.00
2019-03-08T17:17:57.616Z,9.80
2019-03-08T17:20:39.114Z,9.70
2019-03-08T17:23:25.340Z,9.80
2019-03-08T17:25:55.228Z,9.60
2019-03-08T17:28:25.228Z,9.70
2019-03-08T17:30:55.103Z,9.50
2019-03-08T17:33:27.927Z,9.50
2019-03-08T17:36:03.810Z,9.40
2019-03-08T17:38:33.692Z,9.50
2019-03-08T17:41:20.169Z,9.40
2019-03-08T17:43:59.316Z,9.20
2019-03-08T17:46:45.913Z,9.20
2019-03-08T17:49:32.271Z,9.20
2019-03-08T17:52:20.489Z,9.10
2019-03-08T17:55:06.708Z,9.10
2019-03-08T17:57:36.570Z,8.80
2019-03-08T18:00:09.721Z,8.90
2019-03-08T18:02:53.551Z,9.00
2019-03-08T18:05:23.595Z,9.00
2019-03-08T18:07:56.481Z,9.00
2019-03-08T18:10:35.719Z,8.90
2019-03-08T18:13:05.724Z,9.10
2019-03-08T18:15:47.667Z,9.00
2019-03-08T18:18:20.340Z,9.00
2019-03-08T18:20:50.216Z,9.00
2019-03-08T18:23:22.829Z,8.90
2019-03-08T18:25:52.751Z,8.80
2019-03-08T18:28:22.649Z,8.70
2019-03-08T18:31:11.046Z,8.70
2019-03-08T18:33:46.701Z,8.70
2019-03-08T18:36:22.580Z,8.70
2019-03-08T18:39:08.918Z,8.60
2019-03-08T18:41:42.974Z,8.50
2019-03-08T18:44:22.348Z,8.50
2019-03-08T18:47:01.181Z,8.50
2019-03-08T18:49:31.062Z,8.50
2019-03-08T18:52:17.202Z,8.40
2019-03-08T18:54:47.097Z,8.40
2019-03-08T18:57:20.104Z,8.40
2019-03-08T18:59:50.050Z,8.40
2019-03-08T19:02:19.984Z,8.50
2019-03-08T19:04:52.953Z,8.40
2019-03-08T19:07:25.903Z,8.40
2019-03-08T19:10:08.076Z,8.40
2019-03-08T19:12:43.947Z,8.40
2019-03-08T19:15:18.077Z,8.40
2019-03-08T19:17:56.724Z,8.40
2019-03-08T19:20:43.164Z,8.30
2019-03-08T19:23:13.192Z,8.40
2019-03-08T19:25:52.261Z,8.20
2019-03-08T19:28:22.181Z,8.20
2019-03-08T19:31:01.281Z,8.10
2019-03-08T19:33:31.180Z,8.10
2019-03-08T19:36:03.572Z,8.10
2019-03-08T19:38:33.454Z,8.10
2019-03-08T19:41:09.624Z,8.00
2019-03-08T19:43:48.563Z,8.00
2019-03-08T19:46:23.993Z,7.90
2019-03-08T19:48:56.627Z,8.00
2019-03-08T19:51:26.492Z,8.00
2019-03-08T19:53:56.395Z,7.90
2019-03-08T19:56:29.139Z,7.80
2019-03-08T19:59:08.021Z,7.90
2019-03-08T20:01:41.022Z,7.90
2019-03-08T20:04:26.166Z,7.80
2019-03-08T20:06:56.043Z,7.80
2019-03-08T20:09:32.139Z,7.90
2019-03-08T20:12:18.431Z,7.80
2019-03-08T20:14:54.315Z,7.80
2019-03-08T20:17:36.281Z,7.90
2019-03-08T20:20:27.511Z,7.90
2019-03-08T20:23:00.833Z,7.90
2019-03-08T20:25:36.524Z,7.90
2019-03-08T20:28:24.432Z,7.90
2019-03-08T20:31:10.581Z,7.90
2019-03-08T20:33:49.671Z,7.90
2019-03-08T20:36:36.082Z,7.90
2019-03-08T20:39:18.990Z,7.90
2019-03-08T20:41:48.944Z,7.90
2019-03-08T20:44:18.826Z,7.80
2019-03-08T20:46:51.389Z,7.80
2019-03-08T20:49:19.698Z,7.90
2019-03-08T20:51:47.940Z,7.90
2019-03-08T20:54:16.178Z,7.90
2019-03-08T20:56:44.437Z,7.90
2019-03-08T20:59:12.682Z,7.90
2019-03-08T21:01:40.919Z,7.90
2019-03-08T21:04:09.221Z,7.90
2019-03-08T21:06:37.470Z,7.90
2019-03-08T21:09:07.510Z,7.90
2019-03-08T21:11:36.024Z,7.90
2019-03-08T21:14:04.322Z,7.90
2019-03-08T21:16:32.555Z,7.90
2019-03-08T21:19:00.851Z,7.90
2019-03-08T21:21:29.136Z,7.90
2019-03-08T21:23:57.382Z,7.90
2019-03-08T21:26:25.836Z,7.90
2019-03-08T21:28:54.077Z,7.90
2019-03-08T21:31:22.397Z,7.90
2019-03-08T21:33:50.673Z,7.90
2019-03-08T21:36:18.990Z,7.90
2019-03-08T21:38:47.241Z,7.90
2019-03-08T21:41:15.526Z,7.90
2019-03-08T21:43:43.930Z,7.90
2019-03-08T21:46:12.211Z,7.90
2019-03-08T21:48:40.430Z,7.90
2019-03-08T21:51:08.674Z,8.00
2019-03-08T21:53:37.219Z,7.90
2019-03-08T21:56:05.606Z,7.90
2019-03-08T21:58:33.868Z,7.90
2019-03-08T22:01:02.106Z,7.90
2019-03-08T22:03:30.360Z,7.90
2019-03-08T22:05:58.600Z,7.90
2019-03-08T22:08:26.846Z,7.90
2019-03-08T22:10:56.737Z,7.80
2019-03-08T22:13:25.020Z,7.90
2019-03-08T22:15:53.259Z,7.80
2019-03-08T22:18:21.520Z,7.80
2019-03-08T22:20:50.218Z,7.80
2019-03-08T22:23:18.503Z,7.80
2019-03-08T22:25:46.766Z,7.80
2019-03-08T22:28:15.081Z,7.70
2019-03-08T22:30:43.415Z,7.70
2019-03-08T22:33:11.655Z,7.70
2019-03-08T22:35:39.976Z,7.70
2019-03-08T22:38:08.274Z,7.70
2019-03-08T22:40:36.777Z,7.70
2019-03-08T22:43:04.997Z,7.80
2019-03-08T22:45:33.268Z,7.80
2019-03-08T22:48:01.502Z,7.80
2019-03-08T22:50:29.763Z,7.80
2019-03-08T22:52:58.003Z,7.90
2019-03-08T22:55:26.414Z,7.80
2019-03-08T22:57:54.717Z,7.90
2019-03-08T23:00:52.662Z,7.90
2019-03-08T23:03:21.186Z,7.80
2019-03-08T23:05:49.482Z,7.90
2019-03-08T23:08:17.783Z,7.90
2019-03-08T23:10:46.768Z,7.80
2019-03-08T23:13:15.025Z,7.80
2019-03-08T23:15:43.341Z,7.90
2019-03-08T23:18:11.649Z,7.80
2019-03-08T23:20:39.892Z,7.80
2019-03-08T23:23:08.172Z,7.80
2019-03-08T23:25:36.422Z,7.80
2019-03-08T23:28:22.641Z,7.80
2019-03-08T23:31:08.969Z,7.80
2019-03-08T23:33:37.303Z,7.80
2019-03-08T23:36:05.615Z,7.80
2019-03-08T23:38:33.849Z,7.80
2019-03-08T23:41:02.177Z,7.90
2019-03-08T23:43:30.425Z,7.90
2019-03-08T23:45:58.658Z,7.90
2019-03-08T23:48:26.904Z,7.90
2019-03-08T23:50:55.144Z,7.90
2019-03-08T23:53:23.408Z,7.90
2019-03-08T23:55:51.667Z,8.00
2019-03-08T23:58:20.291Z,8.00
